sensor_id;sensor_type;location;lat;lon;timestamp;P1;P2;P0
49343;PMS5003;35210;41.606;-87.602;2022-12-15T00:02:00;20.60;20.60;13.00
49343;PMS5003;35210;41.606;-87.602;2022-12-15T00:04:47;21.00;18.00;11.00
49343;PMS5003;35210;41.606;-87.602;2022-12-15T00:07:33;20.40;19.60;12.00
49343;PMS5003;35210;41.606;-87.602;2022-12-15T00:10:19;16.00;14.20;10.00
49343;PMS5003;35210;41.606;-87.602;2022-12-15T00:13:08;23.00;17.60;10.20
49343;PMS5003;35210;41.606;-87.602;2022-12-15T00:15:55;19.20;18.60;13.80
49343;PMS5003;35210;41.606;-87.602;2022-12-15T00:18:41;20.80;20.00;11.40
49343;PMS5003;35210;41.606;-87.602;2022-12-15T00:21:27;18.00;18.00;13.00
49343;PMS5003;35210;41.606;-87.602;2022-12-15T00:24:13;14.40;14.20;9.20
49343;PMS5003;35210;41.606;-87.602;2022-12-15T00:26:58;20.60;20.60;12.40
49343;PMS5003;35210;41.606;-87.602;2022-12-15T00:29:44;24.80;20.40;12.60
49343;PMS5003;35210;41.606;-87.602;2022-12-15T00:32:29;19.00;19.00;13.00
49343;PMS5003;35210;41.606;-87.602;2022-12-15T00:35:14;20.00;20.00;13.60
49343;PMS5003;35210;41.606;-87.602;2022-12-15T00:38:06;26.20;23.00;12.00
49343;PMS5003;35210;41.606;-87.602;2022-12-15T00:40:52;23.40;23.20;13.00
49343;PMS5003;35210;41.606;-87.602;2022-12-15T00:43:23;22.80;20.60;10.20
49343;PMS5003;35210;41.606;-87.602;2022-12-15T00:45:52;25.20;23.80;14.80
49343;PMS5003;35210;41.606;-87.602;2022-12-15T00:48:37;25.40;24.20;13.60
49343;PMS5003;35210;41.606;-87.602;2022-12-15T00:51:06;23.00;22.80;13.40
49343;PMS5003;35210;41.606;-87.602;2022-12-15T00:53:35;24.00;23.60;15.60
49343;PMS5003;35210;41.606;-87.602;2022-12-15T00:56:20;23.60;22.80;15.60
49343;PMS5003;35210;41.606;-87.602;2022-12-15T00:59:05;25.80;25.80;15.60
49343;PMS5003;35210;41.606;-87.602;2022-12-15T01:01:50;26.60;24.20;15.00
49343;PMS5003;35210;41.606;-87.602;2022-12-15T01:04:35;24.20;19.40;12.00
49343;PMS5003;35210;41.606;-87.602;2022-12-15T01:07:20;27.00;21.80;12.00
49343;PMS5003;35210;41.606;-87.602;2022-12-15T01:10:07;18.80;17.40;10.20
49343;PMS5003;35210;41.606;-87.602;2022-12-15T01:12:52;25.40;19.80;11.40
49343;PMS5003;35210;41.606;-87.602;2022-12-15T01:15:37;22.80;21.40;10.40
49343;PMS5003;35210;41.606;-87.602;2022-12-15T01:18:22;17.00;17.00;8.00
49343;PMS5003;35210;41.606;-87.602;2022-12-15T01:21:07;16.60;15.40;8.80
49343;PMS5003;35210;41.606;-87.602;2022-12-15T01:23:36;16.20;14.20;10.00
49343;PMS5003;35210;41.606;-87.602;2022-12-15T01:26:06;18.60;15.20;7.60
49343;PMS5003;35210;41.606;-87.602;2022-12-15T01:28:35;18.00;18.00;8.00
49343;PMS5003;35210;41.606;-87.602;2022-12-15T01:31:07;21.00;16.60;7.40
49343;PMS5003;35210;41.606;-87.602;2022-12-15T01:33:37;19.40;13.60;7.00
49343;PMS5003;35210;41.606;-87.602;2022-12-15T01:36:08;16.00;15.00;7.00
49343;PMS5003;35210;41.606;-87.602;2022-12-15T01:38:36;16.20;14.00;6.00
49343;PMS5003;35210;41.606;-87.602;2022-12-15T01:41:06;12.60;12.60;7.00
49343;PMS5003;35210;41.606;-87.602;2022-12-15T01:43:37;16.80;14.20;8.20
49343;PMS5003;35210;41.606;-87.602;2022-12-15T01:46:07;17.80;17.00;8.40
49343;PMS5003;35210;41.606;-87.602;2022-12-15T01:48:40;16.80;13.40;7.00
49343;PMS5003;35210;41.606;-87.602;2022-12-15T01:51:14;21.80;15.20;7.00
49343;PMS5003;35210;41.606;-87.602;2022-12-15T01:53:52;16.00;14.20;8.00
49343;PMS5003;35210;41.606;-87.602;2022-12-15T01:56:27;16.60;14.60;7.80
49343;PMS5003;35210;41.606;-87.602;2022-12-15T01:58:58;17.80;16.80;8.00
49343;PMS5003;35210;41.606;-87.602;2022-12-15T02:01:29;15.80;15.00;8.20
49343;PMS5003;35210;41.606;-87.602;2022-12-15T02:03:57;15.60;11.20;7.40
49343;PMS5003;35210;41.606;-87.602;2022-12-15T02:06:27;13.80;12.40;7.00
49343;PMS5003;35210;41.606;-87.602;2022-12-15T02:08:56;13.40;11.00;6.20
49343;PMS5003;35210;41.606;-87.602;2022-12-15T02:11:34;15.60;15.20;9.00
49343;PMS5003;35210;41.606;-87.602;2022-12-15T02:14:19;7.80;7.20;4.80
49343;PMS5003;35210;41.606;-87.602;2022-12-15T02:17:00;7.60;7.20;3.00
49343;PMS5003;35210;41.606;-87.602;2022-12-15T02:19:57;12.20;10.60;6.00
49343;PMS5003;35210;41.606;-87.602;2022-12-15T02:23:12;10.80;10.00;6.00
49343;PMS5003;35210;41.606;-87.602;2022-12-15T02:26:21;15.40;13.60;7.60
49343;PMS5003;35210;41.606;-87.602;2022-12-15T02:29:17;13.20;8.00;6.00
49343;PMS5003;35210;41.606;-87.602;2022-12-15T02:32:11;16.20;12.60;5.00
49343;PMS5003;35210;41.606;-87.602;2022-12-15T02:34:43;14.00;14.00;8.80
49343;PMS5003;35210;41.606;-87.602;2022-12-15T02:37:18;16.20;14.60;6.00
49343;PMS5003;35210;41.606;-87.602;2022-12-15T02:39:50;16.40;13.80;8.00
49343;PMS5003;35210;41.606;-87.602;2022-12-15T02:42:19;15.80;14.60;7.80
49343;PMS5003;35210;41.606;-87.602;2022-12-15T02:44:51;16.40;13.20;7.80
49343;PMS5003;35210;41.606;-87.602;2022-12-15T02:47:27;17.40;15.20;8.80
49343;PMS5003;35210;41.606;-87.602;2022-12-15T02:50:06;18.60;14.20;8.00
49343;PMS5003;35210;41.606;-87.602;2022-12-15T02:52:50;18.80;15.40;9.40
49343;PMS5003;35210;41.606;-87.602;2022-12-15T02:55:31;18.40;16.40;10.20
49343;PMS5003;35210;41.606;-87.602;2022-12-15T02:58:10;17.60;14.00;9.60
49343;PMS5003;35210;41.606;-87.602;2022-12-15T03:00:49;22.60;16.60;7.80
49343;PMS5003;35210;41.606;-87.602;2022-12-15T03:03:24;15.20;15.00;8.00
49343;PMS5003;35210;41.606;-87.602;2022-12-15T03:05:54;20.00;16.20;8.20
49343;PMS5003;35210;41.606;-87.602;2022-12-15T03:08:26;18.80;14.20;7.80
49343;PMS5003;35210;41.606;-87.602;2022-12-15T03:10:55;20.00;15.40;7.60
49343;PMS5003;35210;41.606;-87.602;2022-12-15T03:13:25;20.80;16.80;7.80
49343;PMS5003;35210;41.606;-87.602;2022-12-15T03:15:53;19.60;16.60;9.60
49343;PMS5003;35210;41.606;-87.602;2022-12-15T03:18:24;17.20;17.00;8.20
49343;PMS5003;35210;41.606;-87.602;2022-12-15T03:20:52;22.20;17.40;8.00
49343;PMS5003;35210;41.606;-87.602;2022-12-15T03:23:20;17.60;14.40;8.40
49343;PMS5003;35210;41.606;-87.602;2022-12-15T03:25:48;19.40;15.60;8.40
49343;PMS5003;35210;41.606;-87.602;2022-12-15T03:28:16;15.20;14.60;7.20
49343;PMS5003;35210;41.606;-87.602;2022-12-15T03:30:45;17.20;15.20;7.00
49343;PMS5003;35210;41.606;-87.602;2022-12-15T03:33:14;17.60;15.20;8.00
49343;PMS5003;35210;41.606;-87.602;2022-12-15T03:35:44;12.80;11.40;7.00
49343;PMS5003;35210;41.606;-87.602;2022-12-15T03:38:12;19.00;12.00;5.80
49343;PMS5003;35210;41.606;-87.602;2022-12-15T03:40:40;13.60;12.00;5.60
49343;PMS5003;35210;41.606;-87.602;2022-12-15T03:43:08;14.20;12.00;7.00
49343;PMS5003;35210;41.606;-87.602;2022-12-15T03:45:36;15.00;11.00;6.00
49343;PMS5003;35210;41.606;-87.602;2022-12-15T03:48:04;11.80;11.60;6.80
49343;PMS5003;35210;41.606;-87.602;2022-12-15T03:50:32;21.00;16.00;10.00
49343;PMS5003;35210;41.606;-87.602;2022-12-15T03:53:03;8.60;6.00;2.00
49343;PMS5003;35210;41.606;-87.602;2022-12-15T03:55:31;12.40;12.40;7.00
49343;PMS5003;35210;41.606;-87.602;2022-12-15T03:58:01;15.40;11.40;7.00
49343;PMS5003;35210;41.606;-87.602;2022-12-15T04:00:29;13.60;11.00;6.20
49343;PMS5003;35210;41.606;-87.602;2022-12-15T04:02:57;17.40;12.20;6.00
49343;PMS5003;35210;41.606;-87.602;2022-12-15T04:05:26;16.80;12.60;6.00
49343;PMS5003;35210;41.606;-87.602;2022-12-15T04:07:56;15.00;13.00;6.00
49343;PMS5003;35210;41.606;-87.602;2022-12-15T04:10:28;14.40;11.60;7.00
49343;PMS5003;35210;41.606;-87.602;2022-12-15T04:12:57;13.80;12.60;7.80
49343;PMS5003;35210;41.606;-87.602;2022-12-15T04:15:26;16.00;12.00;7.80
49343;PMS5003;35210;41.606;-87.602;2022-12-15T04:17:54;11.00;11.00;7.40
49343;PMS5003;35210;41.606;-87.602;2022-12-15T04:20:23;14.40;12.40;7.00
49343;PMS5003;35210;41.606;-87.602;2022-12-15T04:22:51;17.40;16.00;9.40
49343;PMS5003;35210;41.606;-87.602;2022-12-15T04:25:20;17.40;13.00;7.80
49343;PMS5003;35210;41.606;-87.602;2022-12-15T04:28:08;19.60;14.80;8.20
49343;PMS5003;35210;41.606;-87.602;2022-12-15T04:30:55;13.60;13.60;8.00
49343;PMS5003;35210;41.606;-87.602;2022-12-15T04:33:43;17.40;14.60;8.20
49343;PMS5003;35210;41.606;-87.602;2022-12-15T04:36:31;11.80;11.00;6.20
49343;PMS5003;35210;41.606;-87.602;2022-12-15T04:39:18;11.00;11.00;6.60
49343;PMS5003;35210;41.606;-87.602;2022-12-15T04:42:03;13.40;13.40;7.80
49343;PMS5003;35210;41.606;-87.602;2022-12-15T04:44:50;10.20;8.20;3.80
49343;PMS5003;35210;41.606;-87.602;2022-12-15T04:47:39;14.20;11.60;6.60
49343;PMS5003;35210;41.606;-87.602;2022-12-15T04:50:24;12.00;10.40;6.00
49343;PMS5003;35210;41.606;-87.602;2022-12-15T04:53:09;14.20;12.60;7.00
49343;PMS5003;35210;41.606;-87.602;2022-12-15T04:55:56;12.40;12.40;7.00
49343;PMS5003;35210;41.606;-87.602;2022-12-15T04:58:41;10.40;10.20;6.00
49343;PMS5003;35210;41.606;-87.602;2022-12-15T05:01:28;9.20;8.80;5.00
49343;PMS5003;35210;41.606;-87.602;2022-12-15T05:04:14;26.40;21.40;12.80
49343;PMS5003;35210;41.606;-87.602;2022-12-15T05:06:58;15.20;15.20;9.20
49343;PMS5003;35210;41.606;-87.602;2022-12-15T05:09:43;9.00;8.80;5.60
49343;PMS5003;35210;41.606;-87.602;2022-12-15T05:12:28;10.80;9.20;3.80
49343;PMS5003;35210;41.606;-87.602;2022-12-15T05:15:14;12.80;9.60;6.00
49343;PMS5003;35210;41.606;-87.602;2022-12-15T05:18:01;8.00;8.00;5.00
49343;PMS5003;35210;41.606;-87.602;2022-12-15T05:20:46;7.60;7.60;5.40
49343;PMS5003;35210;41.606;-87.602;2022-12-15T05:23:32;8.60;6.60;3.80
49343;PMS5003;35210;41.606;-87.602;2022-12-15T05:26:16;15.80;14.20;6.60
49343;PMS5003;35210;41.606;-87.602;2022-12-15T05:29:02;8.00;8.00;4.60
49343;PMS5003;35210;41.606;-87.602;2022-12-15T05:31:47;12.20;9.40;4.40
49343;PMS5003;35210;41.606;-87.602;2022-12-15T05:34:23;9.80;7.00;5.20
49343;PMS5003;35210;41.606;-87.602;2022-12-15T05:36:53;8.80;8.00;5.20
49343;PMS5003;35210;41.606;-87.602;2022-12-15T05:39:23;8.20;6.60;3.40
49343;PMS5003;35210;41.606;-87.602;2022-12-15T05:41:52;7.20;7.00;4.40
49343;PMS5003;35210;41.606;-87.602;2022-12-15T05:44:22;7.60;7.60;4.20
49343;PMS5003;35210;41.606;-87.602;2022-12-15T05:46:51;8.40;7.20;4.00
49343;PMS5003;35210;41.606;-87.602;2022-12-15T05:49:19;7.20;7.20;5.20
49343;PMS5003;35210;41.606;-87.602;2022-12-15T05:51:49;12.40;12.20;8.00
49343;PMS5003;35210;41.606;-87.602;2022-12-15T05:54:18;11.80;11.80;8.00
49343;PMS5003;35210;41.606;-87.602;2022-12-15T05:56:47;13.00;11.60;7.00
49343;PMS5003;35210;41.606;-87.602;2022-12-15T05:59:15;8.00;8.00;6.00
49343;PMS5003;35210;41.606;-87.602;2022-12-15T06:01:45;8.40;8.40;5.80
49343;PMS5003;35210;41.606;-87.602;2022-12-15T06:04:14;6.20;6.20;3.40
49343;PMS5003;35210;41.606;-87.602;2022-12-15T06:06:43;9.40;8.40;5.00
49343;PMS5003;35210;41.606;-87.602;2022-12-15T06:09:12;11.00;7.40;5.00
49343;PMS5003;35210;41.606;-87.602;2022-12-15T06:11:41;7.60;7.60;4.20
49343;PMS5003;35210;41.606;-87.602;2022-12-15T06:14:10;7.60;6.80;3.20
49343;PMS5003;35210;41.606;-87.602;2022-12-15T06:16:38;8.80;8.80;6.00
49343;PMS5003;35210;41.606;-87.602;2022-12-15T06:19:06;9.60;8.20;6.00
49343;PMS5003;35210;41.606;-87.602;2022-12-15T06:21:35;7.00;6.00;4.00
49343;PMS5003;35210;41.606;-87.602;2022-12-15T06:24:07;11.80;7.00;4.00
49343;PMS5003;35210;41.606;-87.602;2022-12-15T06:26:37;6.20;6.00;3.00
49343;PMS5003;35210;41.606;-87.602;2022-12-15T06:29:07;7.80;6.80;3.20
49343;PMS5003;35210;41.606;-87.602;2022-12-15T06:31:37;3.00;3.00;2.00
49343;PMS5003;35210;41.606;-87.602;2022-12-15T06:34:07;7.00;7.00;4.20
49343;PMS5003;35210;41.606;-87.602;2022-12-15T06:36:37;7.00;7.00;3.40
49343;PMS5003;35210;41.606;-87.602;2022-12-15T06:39:10;8.80;6.80;2.60
49343;PMS5003;35210;41.606;-87.602;2022-12-15T06:41:39;4.40;3.00;0.80
49343;PMS5003;35210;41.606;-87.602;2022-12-15T06:44:10;7.00;6.80;3.20
49343;PMS5003;35210;41.606;-87.602;2022-12-15T06:46:40;12.00;12.00;5.80
49343;PMS5003;35210;41.606;-87.602;2022-12-15T06:49:10;5.80;5.80;3.20
49343;PMS5003;35210;41.606;-87.602;2022-12-15T06:51:38;5.60;5.60;2.60
49343;PMS5003;35210;41.606;-87.602;2022-12-15T06:54:10;7.40;6.80;3.00
49343;PMS5003;35210;41.606;-87.602;2022-12-15T06:56:38;11.20;9.20;5.00
49343;PMS5003;35210;41.606;-87.602;2022-12-15T06:59:07;7.00;7.00;4.00
49343;PMS5003;35210;41.606;-87.602;2022-12-15T07:01:37;7.80;7.80;6.00
49343;PMS5003;35210;41.606;-87.602;2022-12-15T07:04:06;16.60;12.60;6.40
49343;PMS5003;35210;41.606;-87.602;2022-12-15T07:06:36;11.00;9.20;5.60
49343;PMS5003;35210;41.606;-87.602;2022-12-15T07:09:06;12.00;11.40;6.00
49343;PMS5003;35210;41.606;-87.602;2022-12-15T07:11:41;8.40;8.40;5.00
49343;PMS5003;35210;41.606;-87.602;2022-12-15T07:14:10;8.80;8.80;5.80
49343;PMS5003;35210;41.606;-87.602;2022-12-15T07:16:40;11.20;8.00;5.00
49343;PMS5003;35210;41.606;-87.602;2022-12-15T07:19:10;10.00;10.00;5.60
49343;PMS5003;35210;41.606;-87.602;2022-12-15T07:21:38;9.40;9.40;5.20
49343;PMS5003;35210;41.606;-87.602;2022-12-15T07:24:08;12.80;12.80;6.80
49343;PMS5003;35210;41.606;-87.602;2022-12-15T07:26:38;7.80;6.00;5.00
49343;PMS5003;35210;41.606;-87.602;2022-12-15T07:29:08;8.40;8.40;5.20
49343;PMS5003;35210;41.606;-87.602;2022-12-15T07:31:38;10.60;10.60;6.00
49343;PMS5003;35210;41.606;-87.602;2022-12-15T07:34:07;12.00;11.60;7.00
49343;PMS5003;35210;41.606;-87.602;2022-12-15T07:36:36;13.20;11.80;7.00
49343;PMS5003;35210;41.606;-87.602;2022-12-15T07:39:05;14.60;14.00;8.60
49343;PMS5003;35210;41.606;-87.602;2022-12-15T07:41:36;16.40;15.00;10.20
49343;PMS5003;35210;41.606;-87.602;2022-12-15T07:44:04;18.20;17.40;9.00
49343;PMS5003;35210;41.606;-87.602;2022-12-15T07:46:37;17.20;13.60;11.00
49343;PMS5003;35210;41.606;-87.602;2022-12-15T07:49:05;19.40;19.00;12.20
49343;PMS5003;35210;41.606;-87.602;2022-12-15T07:51:33;18.20;18.00;12.00
49343;PMS5003;35210;41.606;-87.602;2022-12-15T07:54:01;8.20;8.00;4.00
49343;PMS5003;35210;41.606;-87.602;2022-12-15T07:56:29;11.80;11.00;7.20
49343;PMS5003;35210;41.606;-87.602;2022-12-15T07:58:57;10.20;10.20;6.60
49343;PMS5003;35210;41.606;-87.602;2022-12-15T08:01:26;11.40;11.00;6.80
49343;PMS5003;35210;41.606;-87.602;2022-12-15T08:03:56;12.00;9.00;5.20
49343;PMS5003;35210;41.606;-87.602;2022-12-15T08:06:24;6.00;6.00;2.60
49343;PMS5003;35210;41.606;-87.602;2022-12-15T08:08:53;8.80;7.60;4.20
49343;PMS5003;35210;41.606;-87.602;2022-12-15T08:11:21;13.60;12.40;6.00
49343;PMS5003;35210;41.606;-87.602;2022-12-15T08:13:50;10.60;7.40;5.40
49343;PMS5003;35210;41.606;-87.602;2022-12-15T08:16:19;8.00;8.00;3.80
49343;PMS5003;35210;41.606;-87.602;2022-12-15T08:18:47;8.60;6.00;3.40
49343;PMS5003;35210;41.606;-87.602;2022-12-15T08:21:17;10.40;7.20;5.00
49343;PMS5003;35210;41.606;-87.602;2022-12-15T08:23:45;9.80;9.80;4.40
49343;PMS5003;35210;41.606;-87.602;2022-12-15T08:26:14;8.00;6.80;3.80
49343;PMS5003;35210;41.606;-87.602;2022-12-15T08:28:43;6.40;6.00;3.00
49343;PMS5003;35210;41.606;-87.602;2022-12-15T08:31:14;6.60;6.60;4.00
49343;PMS5003;35210;41.606;-87.602;2022-12-15T08:33:44;6.00;6.00;3.00
49343;PMS5003;35210;41.606;-87.602;2022-12-15T08:36:14;5.60;4.80;2.20
49343;PMS5003;35210;41.606;-87.602;2022-12-15T08:38:44;6.20;6.00;3.00
49343;PMS5003;35210;41.606;-87.602;2022-12-15T08:41:14;8.40;8.00;5.60
49343;PMS5003;35210;41.606;-87.602;2022-12-15T08:43:44;7.60;7.60;4.00
49343;PMS5003;35210;41.606;-87.602;2022-12-15T08:46:13;6.40;6.40;5.00
49343;PMS5003;35210;41.606;-87.602;2022-12-15T08:48:41;4.80;4.80;1.80
49343;PMS5003;35210;41.606;-87.602;2022-12-15T08:51:10;7.20;7.20;3.00
49343;PMS5003;35210;41.606;-87.602;2022-12-15T08:53:39;9.40;7.00;3.00
49343;PMS5003;35210;41.606;-87.602;2022-12-15T08:56:09;5.40;4.00;2.00
49343;PMS5003;35210;41.606;-87.602;2022-12-15T08:58:40;6.40;6.00;3.60
49343;PMS5003;35210;41.606;-87.602;2022-12-15T09:01:10;8.60;7.40;3.00
49343;PMS5003;35210;41.606;-87.602;2022-12-15T09:03:39;6.40;6.00;3.00
49343;PMS5003;35210;41.606;-87.602;2022-12-15T09:06:07;7.20;5.80;2.00
49343;PMS5003;35210;41.606;-87.602;2022-12-15T09:08:40;5.80;5.80;2.80
49343;PMS5003;35210;41.606;-87.602;2022-12-15T09:11:09;5.60;5.60;3.00
49343;PMS5003;35210;41.606;-87.602;2022-12-15T09:13:38;6.00;5.60;3.00
49343;PMS5003;35210;41.606;-87.602;2022-12-15T09:16:07;4.00;4.00;2.80
49343;PMS5003;35210;41.606;-87.602;2022-12-15T09:18:42;7.20;5.60;3.00
49343;PMS5003;35210;41.606;-87.602;2022-12-15T09:21:12;7.80;6.40;3.00
49343;PMS5003;35210;41.606;-87.602;2022-12-15T09:23:45;7.20;6.60;3.00
49343;PMS5003;35210;41.606;-87.602;2022-12-15T09:26:16;5.60;5.60;2.80
49343;PMS5003;35210;41.606;-87.602;2022-12-15T09:28:46;5.80;5.80;2.20
49343;PMS5003;35210;41.606;-87.602;2022-12-15T09:31:15;7.60;7.60;5.00
49343;PMS5003;35210;41.606;-87.602;2022-12-15T09:33:45;8.00;7.00;4.80
49343;PMS5003;35210;41.606;-87.602;2022-12-15T09:36:14;6.20;6.20;2.00
49343;PMS5003;35210;41.606;-87.602;2022-12-15T09:38:44;6.40;6.20;3.00
49343;PMS5003;35210;41.606;-87.602;2022-12-15T09:41:17;6.20;6.00;3.40
49343;PMS5003;35210;41.606;-87.602;2022-12-15T09:43:51;7.20;7.20;4.60
49343;PMS5003;35210;41.606;-87.602;2022-12-15T09:46:25;6.40;6.00;3.00
49343;PMS5003;35210;41.606;-87.602;2022-12-15T09:49:01;8.00;8.00;8.00
49343;PMS5003;35210;41.606;-87.602;2022-12-15T09:51:38;9.60;9.60;5.20
49343;PMS5003;35210;41.606;-87.602;2022-12-15T09:54:18;5.80;5.20;2.80
49343;PMS5003;35210;41.606;-87.602;2022-12-15T09:56:51;4.40;2.60;2.00
49343;PMS5003;35210;41.606;-87.602;2022-12-15T09:59:25;5.60;4.40;2.20
49343;PMS5003;35210;41.606;-87.602;2022-12-15T10:02:05;5.80;5.80;3.80
49343;PMS5003;35210;41.606;-87.602;2022-12-15T10:04:56;6.00;6.00;3.40
49343;PMS5003;35210;41.606;-87.602;2022-12-15T10:07:38;6.00;3.80;2.40
49343;PMS5003;35210;41.606;-87.602;2022-12-15T10:10:14;7.80;6.40;4.00
49343;PMS5003;35210;41.606;-87.602;2022-12-15T10:12:53;7.00;7.00;4.80
49343;PMS5003;35210;41.606;-87.602;2022-12-15T10:15:28;5.80;5.80;4.20
49343;PMS5003;35210;41.606;-87.602;2022-12-15T10:18:08;8.40;8.40;5.00
49343;PMS5003;35210;41.606;-87.602;2022-12-15T10:20:45;5.40;5.40;3.20
49343;PMS5003;35210;41.606;-87.602;2022-12-15T10:23:14;3.60;3.60;3.20
49343;PMS5003;35210;41.606;-87.602;2022-12-15T10:25:48;4.80;4.80;3.40
49343;PMS5003;35210;41.606;-87.602;2022-12-15T10:31:22;2.60;1.80;1.00
49343;PMS5003;35210;41.606;-87.602;2022-12-15T10:34:00;0.80;0.80;0.00
49343;PMS5003;35210;41.606;-87.602;2022-12-15T10:36:36;1.60;1.60;1.00
49343;PMS5003;35210;41.606;-87.602;2022-12-15T10:39:13;1.40;1.00;1.00
49343;PMS5003;35210;41.606;-87.602;2022-12-15T10:41:43;1.00;1.00;0.60
49343;PMS5003;35210;41.606;-87.602;2022-12-15T10:44:22;0.80;0.80;0.00
49343;PMS5003;35210;41.606;-87.602;2022-12-15T10:46:53;0.20;0.20;0.00
49343;PMS5003;35210;41.606;-87.602;2022-12-15T10:49:23;0.40;0.40;0.00
49343;PMS5003;35210;41.606;-87.602;2022-12-15T10:51:52;1.00;1.00;0.00
49343;PMS5003;35210;41.606;-87.602;2022-12-15T10:54:25;1.60;1.60;0.00
49343;PMS5003;35210;41.606;-87.602;2022-12-15T10:57:02;1.60;1.00;1.00
49343;PMS5003;35210;41.606;-87.602;2022-12-15T10:59:47;2.00;2.00;1.00
49343;PMS5003;35210;41.606;-87.602;2022-12-15T11:02:21;3.60;2.40;1.00
49343;PMS5003;35210;41.606;-87.602;2022-12-15T11:05:01;2.00;2.00;1.00
49343;PMS5003;35210;41.606;-87.602;2022-12-15T11:07:33;3.00;3.00;1.00
49343;PMS5003;35210;41.606;-87.602;2022-12-15T11:10:12;5.60;4.60;1.40
49343;PMS5003;35210;41.606;-87.602;2022-12-15T11:12:45;1.00;1.00;0.00
49343;PMS5003;35210;41.606;-87.602;2022-12-15T11:15:36;5.00;5.00;3.20
49343;PMS5003;35210;41.606;-87.602;2022-12-15T11:18:15;3.80;3.40;2.00
49343;PMS5003;35210;41.606;-87.602;2022-12-15T11:20:51;9.80;8.60;3.00
49343;PMS5003;35210;41.606;-87.602;2022-12-15T11:23:27;8.40;8.20;4.20
49343;PMS5003;35210;41.606;-87.602;2022-12-15T11:26:12;13.80;10.00;5.00
49343;PMS5003;35210;41.606;-87.602;2022-12-15T11:28:49;11.40;9.80;5.80
49343;PMS5003;35210;41.606;-87.602;2022-12-15T11:31:24;14.00;14.00;6.80
49343;PMS5003;35210;41.606;-87.602;2022-12-15T11:33:58;13.80;13.20;6.60
49343;PMS5003;35210;41.606;-87.602;2022-12-15T11:36:34;13.80;12.20;7.20
49343;PMS5003;35210;41.606;-87.602;2022-12-15T11:39:20;14.00;13.40;6.20
49343;PMS5003;35210;41.606;-87.602;2022-12-15T11:42:03;13.60;12.60;8.00
49343;PMS5003;35210;41.606;-87.602;2022-12-15T11:44:43;11.80;11.40;6.00
49343;PMS5003;35210;41.606;-87.602;2022-12-15T11:47:20;13.60;12.20;6.80
49343;PMS5003;35210;41.606;-87.602;2022-12-15T11:53:01;10.20;10.20;6.00
49343;PMS5003;35210;41.606;-87.602;2022-12-15T11:55:39;16.60;11.40;6.40
49343;PMS5003;35210;41.606;-87.602;2022-12-15T12:01:15;14.00;12.60;7.20
49343;PMS5003;35210;41.606;-87.602;2022-12-15T12:04:00;15.00;14.00;7.20
49343;PMS5003;35210;41.606;-87.602;2022-12-15T12:06:39;17.40;14.60;7.80
49343;PMS5003;35210;41.606;-87.602;2022-12-15T12:09:26;14.60;11.60;5.20
49343;PMS5003;35210;41.606;-87.602;2022-12-15T12:12:00;14.20;11.20;7.00
49343;PMS5003;35210;41.606;-87.602;2022-12-15T12:14:50;14.20;10.80;6.80
49343;PMS5003;35210;41.606;-87.602;2022-12-15T12:17:34;21.00;16.60;7.00
49343;PMS5003;35210;41.606;-87.602;2022-12-15T12:20:12;16.80;15.20;6.00
49343;PMS5003;35210;41.606;-87.602;2022-12-15T12:22:45;19.00;16.60;6.80
49343;PMS5003;35210;41.606;-87.602;2022-12-15T12:25:22;14.20;10.80;6.60
49343;PMS5003;35210;41.606;-87.602;2022-12-15T12:27:53;17.60;12.40;5.20
49343;PMS5003;35210;41.606;-87.602;2022-12-15T12:30:25;15.60;11.60;6.00
49343;PMS5003;35210;41.606;-87.602;2022-12-15T12:32:59;13.60;11.00;5.60
49343;PMS5003;35210;41.606;-87.602;2022-12-15T12:35:36;14.80;13.20;6.60
49343;PMS5003;35210;41.606;-87.602;2022-12-15T12:38:09;17.40;12.80;6.00
49343;PMS5003;35210;41.606;-87.602;2022-12-15T12:40:44;9.40;9.40;5.00
49343;PMS5003;35210;41.606;-87.602;2022-12-15T12:43:21;14.40;13.80;7.20
49343;PMS5003;35210;41.606;-87.602;2022-12-15T12:45:58;13.00;12.80;7.60
49343;PMS5003;35210;41.606;-87.602;2022-12-15T12:48:33;13.40;13.00;6.00
49343;PMS5003;35210;41.606;-87.602;2022-12-15T12:51:12;12.00;11.40;6.60
49343;PMS5003;35210;41.606;-87.602;2022-12-15T12:53:48;16.20;14.00;8.00
49343;PMS5003;35210;41.606;-87.602;2022-12-15T12:56:33;18.00;13.00;5.60
49343;PMS5003;35210;41.606;-87.602;2022-12-15T13:05:28;17.40;13.00;7.20
49343;PMS5003;35210;41.606;-87.602;2022-12-15T13:10:54;17.80;14.60;8.00
49343;PMS5003;35210;41.606;-87.602;2022-12-15T13:13:40;11.80;10.80;6.80
49343;PMS5003;35210;41.606;-87.602;2022-12-15T13:16:16;13.60;13.60;6.40
49343;PMS5003;35210;41.606;-87.602;2022-12-15T13:18:55;15.80;13.00;6.00
49343;PMS5003;35210;41.606;-87.602;2022-12-15T13:24:26;19.40;14.80;8.00
49343;PMS5003;35210;41.606;-87.602;2022-12-15T13:27:11;15.60;13.00;8.20
49343;PMS5003;35210;41.606;-87.602;2022-12-15T13:29:54;10.00;10.00;5.00
49343;PMS5003;35210;41.606;-87.602;2022-12-15T13:32:27;19.80;16.20;8.60
49343;PMS5003;35210;41.606;-87.602;2022-12-15T13:35:02;12.80;12.80;6.40
49343;PMS5003;35210;41.606;-87.602;2022-12-15T13:37:49;16.40;15.20;9.40
49343;PMS5003;35210;41.606;-87.602;2022-12-15T13:40:48;18.20;13.80;6.00
49343;PMS5003;35210;41.606;-87.602;2022-12-15T13:43:36;17.60;13.40;8.80
49343;PMS5003;35210;41.606;-87.602;2022-12-15T13:46:10;13.60;11.80;6.60
49343;PMS5003;35210;41.606;-87.602;2022-12-15T13:48:44;17.20;16.20;8.00
49343;PMS5003;35210;41.606;-87.602;2022-12-15T13:51:19;20.60;14.00;8.00
49343;PMS5003;35210;41.606;-87.602;2022-12-15T13:53:54;23.00;17.20;8.80
49343;PMS5003;35210;41.606;-87.602;2022-12-15T13:56:38;15.20;13.80;8.20
49343;PMS5003;35210;41.606;-87.602;2022-12-15T13:59:23;11.80;11.00;8.00
49343;PMS5003;35210;41.606;-87.602;2022-12-15T14:01:57;17.00;16.40;8.20
49343;PMS5003;35210;41.606;-87.602;2022-12-15T14:04:27;19.00;16.60;8.00
49343;PMS5003;35210;41.606;-87.602;2022-12-15T14:06:55;17.80;16.20;9.00
49343;PMS5003;35210;41.606;-87.602;2022-12-15T14:09:29;14.80;14.80;9.00
49343;PMS5003;35210;41.606;-87.602;2022-12-15T14:12:00;13.00;10.00;5.00
49343;PMS5003;35210;41.606;-87.602;2022-12-15T14:14:32;14.80;12.00;6.20
49343;PMS5003;35210;41.606;-87.602;2022-12-15T14:17:05;16.60;15.20;8.80
49343;PMS5003;35210;41.606;-87.602;2022-12-15T14:19:38;16.60;16.00;6.40
49343;PMS5003;35210;41.606;-87.602;2022-12-15T14:22:22;17.20;15.40;9.40
49343;PMS5003;35210;41.606;-87.602;2022-12-15T14:24:57;16.80;14.80;7.40
49343;PMS5003;35210;41.606;-87.602;2022-12-15T14:27:28;20.60;14.40;7.40
49343;PMS5003;35210;41.606;-87.602;2022-12-15T14:32:55;11.80;9.80;6.80
49343;PMS5003;35210;41.606;-87.602;2022-12-15T14:35:29;12.60;8.00;4.40
49343;PMS5003;35210;41.606;-87.602;2022-12-15T14:38:04;18.40;16.40;8.00
49343;PMS5003;35210;41.606;-87.602;2022-12-15T14:40:36;16.00;12.60;7.20
49343;PMS5003;35210;41.606;-87.602;2022-12-15T14:43:09;21.00;14.00;7.00
49343;PMS5003;35210;41.606;-87.602;2022-12-15T14:45:47;13.40;11.80;8.20
49343;PMS5003;35210;41.606;-87.602;2022-12-15T14:48:24;17.40;16.00;8.40
49343;PMS5003;35210;41.606;-87.602;2022-12-15T14:50:57;13.80;10.00;6.00